Time;durP1;ratioP1;P1;durP2;ratioP2;P2;SDS_P1;SDS_P2;PMS_P1;PMS_P2;Temp;Humidity;BMP_temperature;BMP_pressure;BME280_temperature;BME280_humidity;BME280_pressure;Samples;Min_cycle;Max_cycle;Signal;HPM_P1;HPM_P2
2024/01/01 00:02:16;;;;;;;29.00;19.90;;;;;;;6.90;100.00;99337.95;177046;1263;59143;-83
2024/01/01 00:06:19;;;;;;;35.60;25.60;;;;;;;6.90;100.00;99342.52;176722;1264;45991;-83
2024/01/01 00:10:23;;;;;;;46.20;28.70;;;;;;;6.94;100.00;99339.90;177183;1264;46036;-83
2024/01/01 00:14:26;;;;;;;31.40;23.00;;;;;;;7.03;100.00;99330.48;176971;1263;44483;-83
2024/01/01 00:18:29;;;;;;;37.80;25.40;;;;;;;7.11;100.00;99332.48;177314;1263;46116;-83
2024/01/01 00:22:32;;;;;;;43.60;28.70;;;;;;;7.19;100.00;99334.86;176816;1263;60179;-83
2024/01/01 00:26:35;;;;;;;37.90;26.60;;;;;;;7.28;100.00;99334.30;176717;1264;46142;-83
2024/01/01 00:30:39;;;;;;;39.20;22.60;;;;;;;7.33;100.00;99329.46;177060;1267;46060;-83
2024/01/01 00:34:44;;;;;;;53.80;33.00;;;;;;;7.28;100.00;99335.48;176623;1264;46884;-83
2024/01/01 00:38:47;;;;;;;53.30;38.10;;;;;;;7.30;100.00;99336.09;176709;1264;46051;-83
2024/01/01 00:42:50;;;;;;;55.90;37.50;;;;;;;7.33;100.00;99343.39;176925;1264;58818;-83
2024/01/01 00:46:53;;;;;;;43.20;30.20;;;;;;;7.39;100.00;99351.71;177114;1264;46816;-81
2024/01/01 00:50:57;;;;;;;34.60;23.20;;;;;;;7.41;100.00;99347.66;176828;1264;46119;-83
2024/01/01 00:55:00;;;;;;;35.60;20.50;;;;;;;7.39;100.00;99353.17;176736;1264;46219;-82
2024/01/01 00:59:03;;;;;;;30.60;17.60;;;;;;;7.39;100.00;99352.23;176867;1264;46221;-83
2024/01/01 01:03:06;;;;;;;32.10;22.50;;;;;;;7.39;100.00;99357.38;177062;1265;57994;-83
2024/01/01 01:07:09;;;;;;;29.50;22.10;;;;;;;7.44;100.00;99363.84;176847;1264;46115;-83
2024/01/01 01:11:13;;;;;;;35.70;24.70;;;;;;;7.35;100.00;99363.88;177052;1263;46065;-82
2024/01/01 01:15:17;;;;;;;26.00;20.00;;;;;;;7.34;100.00;99364.64;176782;1264;46005;-82
2024/01/01 01:19:20;;;;;;;35.80;20.90;;;;;;;7.42;100.00;99364.89;176514;1267;46180;-83
2024/01/01 01:23:23;;;;;;;33.10;22.60;;;;;;;7.53;100.00;99365.52;177206;1264;57968;-83
2024/01/01 01:27:26;;;;;;;26.90;17.50;;;;;;;7.64;100.00;99365.69;177060;1264;46162;-82
2024/01/01 01:31:29;;;;;;;24.90;17.60;;;;;;;7.74;100.00;99361.16;176908;1264;46181;-83
2024/01/01 01:35:33;;;;;;;22.30;17.40;;;;;;;7.83;100.00;99354.06;177052;1264;46037;-83
2024/01/01 01:39:36;;;;;;;23.10;14.70;;;;;;;7.93;100.00;99341.19;177066;1264;46100;-83
2024/01/01 01:43:39;;;;;;;17.10;11.60;;;;;;;7.98;100.00;99338.11;176655;1263;57831;-83
2024/01/01 01:47:42;;;;;;;17.90;12.70;;;;;;;8.00;100.00;99333.04;177143;1265;46061;-82
2024/01/01 01:51:48;;;;;;;13.60;9.00;;;;;;;8.00;100.00;99336.54;177398;1264;46101;-84
2024/01/01 01:55:54;;;;;;;13.80;8.40;;;;;;;7.92;100.00;99330.54;178280;1264;45977;-84
2024/01/01 01:59:58;;;;;;;;;;;;;;;7.84;100.00;99330.81;177203;1263;46032;-82
2024/01/01 02:04:02;;;;;;;8.50;6.10;;;;;;;7.85;99.70;99321.17;177302;1264;59227;-83
2024/01/01 02:08:08;;;;;;;8.40;5.20;;;;;;;7.95;99.99;99304.51;177311;1264;44695;-82
2024/01/01 02:12:12;;;;;;;7.60;4.30;;;;;;;7.96;98.15;99300.89;177114;1264;46013;-83
2024/01/01 02:16:16;;;;;;;10.70;6.60;;;;;;;7.96;96.98;99303.53;178479;1259;46127;-89
2024/01/01 02:20:20;;;;;;;12.10;8.00;;;;;;;8.00;97.90;99301.79;178417;1259;47187;-87
2024/01/01 02:24:23;;;;;;;19.90;10.80;;;;;;;7.98;97.64;99296.23;177945;1259;57883;-87
2024/01/01 02:28:27;;;;;;;19.50;11.60;;;;;;;8.02;98.01;99289.39;177481;1259;46104;-88
2024/01/01 02:32:30;;;;;;;14.30;9.70;;;;;;;8.08;96.65;99287.14;177505;1262;46043;-87
2024/01/01 02:36:39;;;;;;;23.70;13.30;;;;;;;8.13;96.36;99294.62;177351;1260;46012;-87
2024/01/01 02:40:42;;;;;;;28.50;16.20;;;;;;;8.14;96.60;99296.63;177468;1260;46132;-87
2024/01/01 02:44:46;;;;;;;22.50;14.80;;;;;;;8.11;95.91;99299.91;177358;1260;60874;-86
2024/01/01 02:48:49;;;;;;;29.20;16.20;;;;;;;8.11;96.10;99291.77;177137;1263;46108;-87
2024/01/01 02:52:53;;;;;;;25.10;14.60;;;;;;;8.12;96.31;99280.23;177848;1259;46229;-88
2024/01/01 02:56:56;;;;;;;19.50;11.80;;;;;;;8.10;95.67;99278.25;177690;1263;46477;-88
2024/01/01 03:01:00;;;;;;;19.70;12.00;;;;;;;8.08;95.53;99275.98;177873;1259;46034;-89
2024/01/01 03:05:05;;;;;;;25.00;12.00;;;;;;;8.12;95.30;99274.23;177592;1260;58319;-89
2024/01/01 03:09:09;;;;;;;25.80;13.10;;;;;;;8.15;95.33;99274.86;177381;1260;46005;-89
2024/01/01 03:13:12;;;;;;;17.90;11.20;;;;;;;8.17;95.98;99271.52;177106;1259;46019;-89
2024/01/01 03:17:15;;;;;;;23.60;13.10;;;;;;;8.16;95.89;99273.89;177181;1259;45952;-89
2024/01/01 03:21:19;;;;;;;26.00;9.70;;;;;;;8.09;96.44;99267.10;177414;1259;46063;-89
2024/01/01 03:25:23;;;;;;;21.90;13.40;;;;;;;8.07;97.09;99266.41;177291;1263;252742;-89
2024/01/01 03:29:27;;;;;;;25.10;12.90;;;;;;;8.02;96.55;99262.77;177268;1260;46063;-89
2024/01/01 03:33:34;;;;;;;20.80;11.70;;;;;;;7.97;96.93;99267.61;177204;1260;46001;-89
2024/01/01 03:37:37;;;;;;;15.10;7.40;;;;;;;7.88;95.39;99275.23;177195;1259;46124;-88
2024/01/01 03:41:42;;;;;;;7.30;4.60;;;;;;;7.83;95.83;99274.79;177101;1259;46150;-88
2024/01/01 03:45:46;;;;;;;12.60;8.20;;;;;;;7.86;95.42;99269.43;177615;1259;59367;-88
2024/01/01 03:49:49;;;;;;;8.20;5.70;;;;;;;7.84;93.56;99273.77;177303;1260;46146;-89
2024/01/01 03:53:53;;;;;;;7.50;4.60;;;;;;;7.80;92.13;99272.42;177416;1259;44539;-88
2024/01/01 03:57:57;;;;;;;10.10;3.40;;;;;;;7.78;92.96;99272.22;177379;1260;46044;-88
2024/01/01 04:02:01;;;;;;;4.80;3.90;;;;;;;7.77;93.70;99273.58;177587;1260;46107;-88
2024/01/01 04:06:05;;;;;;;7.60;3.70;;;;;;;7.75;93.83;99274.77;177589;1259;57903;-88
2024/01/01 04:10:10;;;;;;;7.80;5.40;;;;;;;7.76;94.56;99276.30;177407;1259;46455;-88
2024/01/01 04:14:13;;;;;;;10.00;4.70;;;;;;;7.76;94.24;99274.86;177790;1260;45918;-89
2024/01/01 04:18:17;;;;;;;8.90;4.10;;;;;;;7.76;95.60;99274.35;177516;1260;46309;-88
2024/01/01 04:22:21;;;;;;;10.50;5.80;;;;;;;7.77;94.89;99275.90;177240;1260;46146;-89
2024/01/01 04:26:28;;;;;;;11.90;5.80;;;;;;;7.76;94.50;99276.11;177430;1259;59765;-88
2024/01/01 04:30:32;;;;;;;9.20;4.70;;;;;;;7.72;94.22;99274.27;177755;1259;46210;-90
2024/01/01 04:34:38;;;;;;;10.40;5.80;;;;;;;7.68;94.79;99266.70;178078;1259;46089;-89
2024/01/01 04:38:42;;;;;;;;;;;;;;;7.66;95.93;99257.92;178107;1259;46018;-88
2024/01/01 04:42:49;;;;;;;12.60;6.20;;;;;;;7.63;95.97;99250.73;177476;1259;45691;-89
2024/01/01 04:46:53;;;;;;;7.90;5.50;;;;;;;7.69;97.73;99251.51;178011;1259;57667;-89
2024/01/01 04:50:58;;;;;;;8.30;5.20;;;;;;;7.74;97.84;99260.08;177676;1260;46120;-89
2024/01/01 04:55:02;;;;;;;13.90;8.70;;;;;;;7.70;96.20;99268.70;178076;1259;45990;-87
2024/01/01 04:59:06;;;;;;;15.20;8.90;;;;;;;7.62;96.36;99267.23;177415;1259;46270;-89
2024/01/01 05:03:10;;;;;;;16.20;9.90;;;;;;;7.55;96.76;99257.06;177752;1259;46003;-90
2024/01/01 05:07:13;;;;;;;26.80;13.80;;;;;;;7.54;97.13;99252.19;177542;1260;58083;-89
2024/01/01 05:11:17;;;;;;;30.30;14.50;;;;;;;7.39;98.31;99244.98;177479;1259;45911;-90
2024/01/01 05:15:20;;;;;;;26.80;13.10;;;;;;;7.20;99.77;99238.35;177223;1259;46123;-89
2024/01/01 05:19:24;;;;;;;18.70;9.60;;;;;;;7.00;100.00;99237.52;177295;1260;46120;-88
2024/01/01 05:23:30;;;;;;;17.30;10.10;;;;;;;6.92;100.00;99240.28;177274;1259;46179;-89
2024/01/01 05:27:33;;;;;;;17.10;8.30;;;;;;;6.80;100.00;99234.35;177154;1260;59547;-88
2024/01/01 05:31:38;;;;;;;14.80;7.20;;;;;;;6.78;100.00;99235.79;177331;1260;46076;-88
2024/01/01 05:35:42;;;;;;;14.50;7.50;;;;;;;6.80;100.00;99230.54;177685;1259;45895;-88
2024/01/01 05:39:45;;;;;;;16.80;9.20;;;;;;;6.80;100.00;99238.29;177619;1259;46009;-88
2024/01/01 05:43:50;;;;;;;13.70;9.10;;;;;;;6.80;100.00;99244.42;177222;1264;46000;-88
2024/01/01 05:47:54;;;;;;;8.40;6.60;;;;;;;6.86;100.00;99247.34;177224;1260;57934;-88
2024/01/01 05:51:58;;;;;;;10.80;8.30;;;;;;;6.98;100.00;99254.61;177229;1260;46031;-88
2024/01/01 05:56:04;;;;;;;9.20;6.70;;;;;;;7.08;100.00;99258.38;177342;1259;46106;-88
2024/01/01 06:00:09;;;;;;;14.20;8.00;;;;;;;7.04;100.00;99259.73;177501;1259;44912;-89
2024/01/01 06:04:14;;;;;;;11.60;6.30;;;;;;;7.01;100.00;99265.09;177477;1260;46469;-87
2024/01/01 06:08:18;;;;;;;8.40;6.30;;;;;;;7.00;99.96;99264.11;177666;1259;59746;-89
2024/01/01 06:12:22;;;;;;;14.10;7.30;;;;;;;7.04;100.00;99263.77;177239;1260;46111;-88
2024/01/01 06:16:25;;;;;;;10.10;6.90;;;;;;;7.07;99.94;99263.16;177267;1259;46116;-88
2024/01/01 06:20:29;;;;;;;10.90;6.80;;;;;;;7.03;99.14;99263.13;177511;1259;46224;-88
2024/01/01 06:24:32;;;;;;;9.80;6.10;;;;;;;6.99;99.35;99262.95;177386;1260;46044;-89
2024/01/01 06:28:35;;;;;;;11.90;8.30;;;;;;;6.98;99.12;99257.78;177359;1259;59285;-89
2024/01/01 06:32:39;;;;;;;13.30;7.00;;;;;;;6.99;99.17;99265.05;177491;1259;46093;-89
2024/01/01 06:36:43;;;;;;;10.10;7.10;;;;;;;6.96;98.46;99277.30;177589;1262;46143;-89
2024/01/01 06:40:46;;;;;;;12.90;8.20;;;;;;;6.90;98.77;99279.21;177443;1263;45981;-89
2024/01/01 06:44:51;;;;;;;9.00;6.70;;;;;;;6.84;99.12;99276.31;177248;1259;46003;-89
2024/01/01 06:48:54;;;;;;;9.50;7.10;;;;;;;6.80;99.89;99278.45;177753;1260;59300;-88
2024/01/01 06:52:59;;;;;;;17.10;8.20;;;;;;;6.75;100.00;99279.91;177779;1260;46532;-89
2024/01/01 06:57:03;;;;;;;9.80;8.80;;;;;;;6.74;100.00;99280.56;177403;1259;45952;-89
2024/01/01 07:01:07;;;;;;;13.40;6.60;;;;;;;6.71;100.00;99285.70;177320;1259;45960;-90
2024/01/01 07:05:11;;;;;;;7.60;6.80;;;;;;;6.67;100.00;99288.83;177468;1260;46162;-89
2024/01/01 07:09:14;;;;;;;10.90;7.60;;;;;;;6.66;100.00;99296.66;177850;1259;60455;-88
2024/01/01 07:13:18;;;;;;;10.00;7.80;;;;;;;6.65;100.00;99297.85;178040;1259;45991;-88
2024/01/01 07:17:22;;;;;;;11.20;7.50;;;;;;;6.65;100.00;99293.89;178294;1260;46161;-87
2024/01/01 07:21:25;;;;;;;11.90;9.00;;;;;;;6.67;100.00;99292.55;177647;1260;46122;-89
2024/01/01 07:25:29;;;;;;;10.90;8.10;;;;;;;6.66;100.00;99300.67;177650;1259;46031;-89
2024/01/01 07:29:32;;;;;;;19.20;8.90;;;;;;;6.65;100.00;99314.23;177349;1260;60403;-89
2024/01/01 07:33:36;;;;;;;10.20;8.00;;;;;;;6.59;100.00;99311.84;177488;1260;45936;-89
2024/01/01 07:37:39;;;;;;;15.30;9.70;;;;;;;6.55;100.00;99317.95;177629;1259;46023;-89
2024/01/01 07:41:43;;;;;;;11.90;10.10;;;;;;;6.53;100.00;99319.69;177289;1259;46024;-89
2024/01/01 07:45:47;;;;;;;16.20;10.30;;;;;;;6.53;100.00;99315.17;177443;1260;44846;-89
2024/01/01 07:49:51;;;;;;;8.40;6.90;;;;;;;6.52;100.00;99319.42;177829;1260;58237;-91
2024/01/01 07:53:54;;;;;;;12.30;7.70;;;;;;;6.53;100.00;99320.05;177617;1260;46042;-90
2024/01/01 07:57:58;;;;;;;16.20;10.30;;;;;;;6.57;100.00;99320.49;177660;1260;45712;-90
2024/01/01 08:02:01;;;;;;;20.50;11.10;;;;;;;6.63;100.00;99320.19;177255;1259;46061;-90
2024/01/01 08:06:05;;;;;;;12.10;8.90;;;;;;;6.69;100.00;99323.42;178283;1259;46026;-87
2024/01/01 08:10:10;;;;;;;10.90;7.70;;;;;;;6.77;100.00;99320.66;177374;1260;58203;-90
2024/01/01 08:14:14;;;;;;;11.70;10.10;;;;;;;6.86;100.00;99321.35;177432;1259;46016;-89
2024/01/01 08:18:19;;;;;;;12.40;9.80;;;;;;;6.92;100.00;99320.69;177363;1259;46281;-89
2024/01/01 08:22:22;;;;;;;13.80;10.70;;;;;;;6.98;100.00;99322.44;177537;1260;45967;-89
2024/01/01 08:26:26;;;;;;;14.70;9.10;;;;;;;7.07;100.00;99326.82;177344;1259;45903;-89
2024/01/01 08:30:30;;;;;;;15.60;10.10;;;;;;;7.14;100.00;99326.27;177418;1259;60834;-90
2024/01/01 08:34:34;;;;;;;14.00;9.90;;;;;;;7.20;100.00;99321.31;177644;1260;46198;-90
2024/01/01 08:38:37;;;;;;;14.10;8.40;;;;;;;7.23;100.00;99325.65;177807;1259;45978;-89
2024/01/01 08:42:41;;;;;;;18.40;9.70;;;;;;;7.27;100.00;99326.05;177467;1260;46009;-87
2024/01/01 08:46:44;;;;;;;12.10;8.30;;;;;;;7.35;100.00;99326.81;177892;1264;46121;-88
2024/01/01 08:50:48;;;;;;;15.30;10.60;;;;;;;7.43;100.00;99332.15;177837;1260;58337;-88
2024/01/01 08:54:51;;;;;;;12.60;9.10;;;;;;;7.49;100.00;99332.16;177504;1260;46031;-88
2024/01/01 08:58:55;;;;;;;12.10;9.00;;;;;;;7.56;100.00;99329.61;177410;1259;46041;-89
2024/01/01 09:02:59;;;;;;;13.50;9.90;;;;;;;7.65;100.00;99330.30;177587;1260;46020;-88
2024/01/01 09:07:04;;;;;;;12.00;8.30;;;;;;;7.70;100.00;99330.48;178256;1260;46005;-89
2024/01/01 09:11:08;;;;;;;15.10;7.60;;;;;;;7.74;100.00;99324.84;177659;1260;59542;-89
2024/01/01 09:15:15;;;;;;;13.70;9.50;;;;;;;7.80;100.00;99321.86;177538;1260;46207;-88
2024/01/01 09:19:19;;;;;;;14.40;9.10;;;;;;;7.87;100.00;99320.14;177560;1260;46020;-87
2024/01/01 09:23:26;;;;;;;12.80;9.20;;;;;;;8.00;100.00;99315.67;177312;1260;46155;-88
2024/01/01 09:27:30;;;;;;;8.80;6.30;;;;;;;8.10;100.00;99314.85;177730;1259;46101;-89
2024/01/01 09:31:35;;;;;;;10.30;6.80;;;;;;;8.20;100.00;99316.95;177770;1260;57940;-89
2024/01/01 09:35:42;;;;;;;8.90;6.60;;;;;;;8.37;100.00;99311.15;177777;1259;46149;-90
2024/01/01 09:39:46;;;;;;;9.20;6.40;;;;;;;8.47;100.00;99307.97;177624;1260;46271;-89
2024/01/01 09:43:49;;;;;;;9.20;6.70;;;;;;;8.56;100.00;99304.88;177459;1260;45989;-88
2024/01/01 09:47:53;;;;;;;8.10;7.10;;;;;;;8.65;100.00;99308.63;177329;1264;46039;-89
2024/01/01 09:51:58;;;;;;;15.10;8.20;;;;;;;8.76;100.00;99303.13;178433;1260;57315;-90
2024/01/01 09:56:02;;;;;;;11.20;7.60;;;;;;;8.87;100.00;99295.59;179149;1259;46016;-91
2024/01/01 10:00:41;;;;;;;9.60;6.50;;;;;;;8.94;100.00;99294.80;179750;1264;46069;-92
2024/01/01 10:05:29;;;;;;;12.20;8.50;;;;;;;8.98;100.00;99297.27;180007;1260;45895;-92
2024/01/01 10:09:50;;;;;;;13.70;8.30;;;;;;;9.01;98.96;99291.84;180208;1260;46005;-92
2024/01/01 10:14:03;;;;;;;11.20;7.20;;;;;;;9.05;97.51;99297.71;179098;1259;61696;-90
2024/01/01 10:18:16;;;;;;;11.70;6.70;;;;;;;9.08;97.12;99298.64;179332;1259;46105;-90
2024/01/01 10:22:23;;;;;;;11.90;7.60;;;;;;;9.11;97.68;99296.95;178515;1260;46032;-91
2024/01/01 10:26:47;;;;;;;10.80;6.90;;;;;;;9.15;97.03;99296.40;178332;1260;46070;-90
2024/01/01 10:30:51;;;;;;;6.00;4.70;;;;;;;9.16;95.77;99292.32;178788;1260;43959;-89
2024/01/01 10:34:57;;;;;;;6.90;5.60;;;;;;;9.16;95.52;99296.89;179146;1259;57132;-89
2024/01/01 10:39:02;;;;;;;5.00;4.00;;;;;;;9.21;95.14;99295.31;178785;1259;46365;-89
2024/01/01 10:43:07;;;;;;;11.20;5.50;;;;;;;9.23;94.37;99292.36;178873;1259;46378;-90
2024/01/01 10:47:11;;;;;;;6.70;4.40;;;;;;;9.24;94.31;99295.94;178970;1259;46196;-90
2024/01/01 10:51:34;;;;;;;10.10;6.20;;;;;;;9.25;94.28;99297.77;179115;1259;44121;-89
2024/01/01 10:56:05;;;;;;;11.60;6.00;;;;;;;9.23;93.95;99293.17;178725;1259;59483;-91
2024/01/01 11:00:41;;;;;;;11.70;6.30;;;;;;;9.26;94.21;99295.42;178968;1260;44701;-90
2024/01/01 11:04:48;;;;;;;18.30;6.50;;;;;;;9.28;94.40;99298.23;178929;1260;44686;-90
2024/01/01 11:08:51;;;;;;;12.00;6.90;;;;;;;9.38;95.05;99296.84;178680;1263;46134;-89
2024/01/01 11:12:55;;;;;;;13.30;6.50;;;;;;;9.51;95.46;99294.19;178847;1259;46055;-90
2024/01/01 11:17:06;;;;;;;8.40;6.40;;;;;;;9.63;94.57;99289.88;179086;1259;57553;-88
2024/01/01 11:21:27;;;;;;;7.50;6.70;;;;;;;9.76;94.90;99284.98;178244;1263;44766;-88
2024/01/01 11:25:34;;;;;;;7.60;5.40;;;;;;;9.87;94.19;99285.02;178360;1260;46103;-90
2024/01/01 11:29:38;;;;;;;9.10;6.20;;;;;;;9.99;94.18;99282.25;178227;1260;46131;-89
2024/01/01 11:33:41;;;;;;;9.70;5.40;;;;;;;10.09;93.43;99282.39;178321;1263;46081;-90
2024/01/01 11:37:45;;;;;;;11.50;6.30;;;;;;;10.15;91.02;99275.42;178487;1260;60229;-91
2024/01/01 11:41:50;;;;;;;10.30;3.70;;;;;;;10.22;90.19;99270.56;178628;1260;46117;-88
2024/01/01 11:45:57;;;;;;;7.80;4.30;;;;;;;10.23;87.50;99270.15;178230;1259;46045;-89
2024/01/01 11:50:07;;;;;;;7.80;4.80;;;;;;;10.27;87.49;99264.77;178354;1259;46134;-89
2024/01/01 11:54:11;;;;;;;5.70;5.00;;;;;;;10.29;86.84;99262.60;178814;1260;45987;-88
2024/01/01 11:58:17;;;;;;;10.50;4.70;;;;;;;10.30;86.12;99266.03;179655;1260;59300;-89
2024/01/01 12:02:23;;;;;;;7.10;4.80;;;;;;;10.21;84.20;99265.66;178925;1260;46149;-90
2024/01/01 12:06:28;;;;;;;8.50;5.80;;;;;;;10.11;84.22;99271.40;179294;1263;46494;-91
2024/01/01 12:10:33;;;;;;;13.10;7.20;;;;;;;9.97;84.28;99268.62;178718;1261;45980;-88
2024/01/01 12:14:36;;;;;;;8.00;4.60;;;;;;;9.92;85.86;99268.25;179111;1263;46125;-90
2024/01/01 12:18:40;;;;;;;8.50;4.80;;;;;;;9.83;85.95;99266.90;179011;1263;60034;-90
2024/01/01 12:22:45;;;;;;;11.40;5.00;;;;;;;9.82;86.51;99258.56;178657;1260;45658;-89
2024/01/01 12:26:55;;;;;;;6.40;4.60;;;;;;;9.77;84.79;99260.06;178798;1263;46066;-92
2024/01/01 12:31:01;;;;;;;8.90;6.90;;;;;;;9.67;86.12;99259.04;179128;1260;44830;-91
2024/01/01 12:35:05;;;;;;;11.50;6.70;;;;;;;9.57;86.14;99258.45;178565;1260;46197;-89
2024/01/01 12:39:10;;;;;;;10.60;4.30;;;;;;;9.53;87.23;99267.63;178667;1260;57095;-88
2024/01/01 12:43:15;;;;;;;;;;;;;;;9.57;86.83;99268.29;178662;1264;46134;-89
2024/01/01 12:47:19;;;;;;;11.60;6.00;;;;;;;9.64;85.64;99268.77;179215;1260;46303;-90
2024/01/01 12:51:25;;;;;;;10.40;6.10;;;;;;;9.62;85.31;99274.42;178941;1260;45698;-90
2024/01/01 12:55:32;;;;;;;6.40;3.60;;;;;;;9.52;83.97;99276.77;178673;1263;46114;-90
2024/01/01 12:59:36;;;;;;;6.90;4.00;;;;;;;9.48;83.52;99269.89;178835;1262;60708;-89
2024/01/01 13:03:43;;;;;;;10.10;5.60;;;;;;;9.50;85.23;99273.57;178752;1263;44848;-89
2024/01/01 13:07:48;;;;;;;5.90;4.20;;;;;;;9.45;85.86;99272.59;179183;1259;46050;-89
2024/01/01 13:11:52;;;;;;;6.30;3.70;;;;;;;9.38;86.03;99268.14;178861;1260;46137;-89
2024/01/01 13:16:00;;;;;;;11.70;4.40;;;;;;;9.30;85.23;99271.35;179577;1259;45985;-84
2024/01/01 13:20:24;;;;;;;7.80;3.60;;;;;;;9.22;85.20;99270.49;179777;1260;59155;-90
2024/01/01 13:24:28;;;;;;;6.80;5.30;;;;;;;9.19;85.90;99274.46;179689;1265;46135;-87
2024/01/01 13:28:32;;;;;;;9.70;5.70;;;;;;;9.19;85.71;99276.25;179757;1259;44783;-88
2024/01/01 13:32:38;;;;;;;6.40;4.10;;;;;;;9.17;84.84;99278.88;179438;1260;44725;-90
2024/01/01 13:36:45;;;;;;;7.80;4.40;;;;;;;9.27;84.68;99281.02;179459;1260;44588;-89
2024/01/01 13:40:52;;;;;;;7.40;4.30;;;;;;;9.35;85.32;99282.17;179127;1263;58652;-89
2024/01/01 13:44:57;;;;;;;6.90;5.00;;;;;;;9.37;85.43;99281.11;179426;1263;45905;-89
2024/01/01 13:49:01;;;;;;;9.40;5.10;;;;;;;9.33;85.26;99284.73;179420;1260;44736;-91
2024/01/01 13:53:06;;;;;;;7.60;4.70;;;;;;;9.29;85.38;99286.13;179380;1263;46034;-89
2024/01/01 13:57:10;;;;;;;7.40;4.00;;;;;;;9.23;86.43;99290.21;179532;1259;46078;-89
2024/01/01 14:01:18;;;;;;;7.80;4.40;;;;;;;9.19;86.98;99297.64;179486;1260;60866;-91
2024/01/01 14:05:24;;;;;;;8.70;4.80;;;;;;;9.11;85.90;99294.52;179264;1261;44731;-90
2024/01/01 14:09:29;;;;;;;9.80;5.10;;;;;;;9.02;87.14;99296.21;179517;1261;44805;-90
2024/01/01 14:13:33;;;;;;;5.60;4.60;;;;;;;8.96;86.03;99302.91;179086;1260;45889;-89
2024/01/01 14:17:36;;;;;;;9.10;5.50;;;;;;;8.87;87.45;99306.20;179107;1260;46042;-91
2024/01/01 14:21:40;;;;;;;9.80;6.10;;;;;;;8.79;88.66;99307.11;179098;1260;59421;-90
2024/01/01 14:25:45;;;;;;;7.60;5.00;;;;;;;8.76;88.29;99307.02;179266;1260;44846;-90
2024/01/01 14:29:59;;;;;;;8.30;4.80;;;;;;;8.74;89.29;99313.05;179286;1259;44837;-88
2024/01/01 14:34:05;;;;;;;12.30;5.20;;;;;;;8.68;90.38;99313.91;179717;1263;46093;-92
2024/01/01 14:38:09;;;;;;;5.50;3.80;;;;;;;8.60;90.75;99320.04;179379;1263;45965;-90
2024/01/01 14:42:13;;;;;;;13.50;6.60;;;;;;;8.58;90.91;99324.14;179766;1264;59352;-90
2024/01/01 14:46:18;;;;;;;9.40;5.60;;;;;;;8.62;91.32;99324.48;179265;1261;45969;-89
2024/01/01 14:50:23;;;;;;;11.50;6.10;;;;;;;8.61;91.54;99327.27;179201;1262;46093;-89
2024/01/01 14:59:13;;;;;;;14.30;6.20;;;;;;;8.60;91.87;99335.46;179685;1262;45715;-88
2024/01/01 15:03:21;;;;;;;10.30;6.60;;;;;;;8.58;92.31;99338.79;179324;1262;59431;-88
2024/01/01 15:07:25;;;;;;;8.60;5.40;;;;;;;8.54;92.34;99342.02;178854;1261;46212;-89
2024/01/01 15:11:28;;;;;;;6.60;4.90;;;;;;;8.50;93.05;99348.13;178327;1262;47766;-88
2024/01/01 15:15:32;;;;;;;7.50;4.60;;;;;;;8.48;93.63;99354.36;177397;1265;46046;-88
2024/01/01 15:19:36;;;;;;;10.30;6.00;;;;;;;8.39;93.73;99357.79;177501;1262;45999;-88
2024/01/01 15:23:40;;;;;;;8.70;6.10;;;;;;;8.17;94.80;99364.26;177993;1261;352963;-87
2024/01/01 15:27:43;;;;;;;25.70;8.10;;;;;;;7.95;96.16;99373.86;177969;1265;46032;-87
2024/01/01 15:31:47;;;;;;;16.90;10.30;;;;;;;7.75;99.96;99379.81;177708;1263;44160;-88
2024/01/01 15:35:53;;;;;;;13.20;8.10;;;;;;;7.61;100.00;99392.92;177466;1260;46011;-87
2024/01/01 15:40:00;;;;;;;12.70;9.10;;;;;;;7.49;100.00;99389.21;177577;1261;46005;-88
2024/01/01 15:44:04;;;;;;;12.90;7.30;;;;;;;7.41;100.00;99385.93;177635;1263;58085;-89
2024/01/01 15:48:08;;;;;;;11.20;8.00;;;;;;;7.32;100.00;99380.87;177456;1260;45997;-87
2024/01/01 15:52:13;;;;;;;9.40;7.10;;;;;;;7.30;100.00;99390.03;177870;1261;46024;-87
2024/01/01 15:56:17;;;;;;;10.50;7.50;;;;;;;7.14;100.00;99387.84;177717;1261;45995;-88
2024/01/01 16:00:20;;;;;;;17.00;8.70;;;;;;;6.95;100.00;99386.00;177820;1262;46042;-88
2024/01/01 16:04:24;;;;;;;9.40;6.50;;;;;;;6.81;100.00;99382.34;177857;1264;58028;-88
2024/01/01 16:08:28;;;;;;;12.40;8.60;;;;;;;6.89;100.00;99378.32;177829;1263;46146;-87
2024/01/01 16:12:33;;;;;;;9.20;8.20;;;;;;;7.01;100.00;99379.65;178205;1262;45965;-87
2024/01/01 16:16:36;;;;;;;15.70;7.40;;;;;;;7.14;100.00;99388.88;178075;1262;46012;-87
2024/01/01 16:20:41;;;;;;;9.70;5.90;;;;;;;7.20;100.00;99391.77;177514;1262;46010;-87
2024/01/01 16:24:46;;;;;;;9.80;6.50;;;;;;;7.17;100.00;99391.08;177328;1259;57928;-89
2024/01/01 16:28:49;;;;;;;9.20;6.10;;;;;;;7.19;100.00;99392.56;177522;1259;46125;-88
2024/01/01 16:32:53;;;;;;;12.20;6.80;;;;;;;7.22;100.00;99394.53;177615;1265;46151;-88
2024/01/01 16:36:57;;;;;;;10.90;6.70;;;;;;;7.30;100.00;99400.82;177888;1261;46901;-88
2024/01/01 16:41:01;;;;;;;16.60;11.20;;;;;;;7.27;100.00;99403.80;178151;1262;46044;-89
2024/01/01 16:45:05;;;;;;;19.40;11.90;;;;;;;7.21;100.00;99404.52;177776;1262;59551;-90
2024/01/01 16:49:11;;;;;;;12.70;8.30;;;;;;;7.16;100.00;99402.80;177727;1259;46035;-88
2024/01/01 16:53:15;;;;;;;15.50;9.80;;;;;;;7.15;100.00;99403.20;177458;1267;46129;-89
2024/01/01 16:57:19;;;;;;;21.00;11.60;;;;;;;7.15;100.00;99398.60;177560;1264;45975;-89
2024/01/01 17:01:24;;;;;;;15.80;8.70;;;;;;;7.16;100.00;99396.26;178070;1265;46124;-88
2024/01/01 17:05:27;;;;;;;11.00;8.50;;;;;;;7.21;100.00;99395.84;177715;1262;59446;-89
2024/01/01 17:09:31;;;;;;;15.00;9.60;;;;;;;7.30;100.00;99395.86;177701;1263;46099;-89
2024/01/01 17:13:35;;;;;;;13.90;8.70;;;;;;;7.33;100.00;99395.43;177473;1263;46211;-87
2024/01/01 17:17:38;;;;;;;15.40;9.50;;;;;;;7.33;100.00;99398.77;177802;1265;46130;-88
2024/01/01 17:21:43;;;;;;;14.60;9.60;;;;;;;7.32;100.00;99394.30;177730;1263;46183;-88
2024/01/01 17:25:47;;;;;;;15.90;8.00;;;;;;;7.32;100.00;99396.27;177539;1262;59542;-89
2024/01/01 17:29:50;;;;;;;14.00;10.60;;;;;;;7.31;100.00;99398.59;177837;1264;46227;-88
2024/01/01 17:33:54;;;;;;;18.70;9.40;;;;;;;7.34;100.00;99399.77;177806;1265;45981;-87
2024/01/01 17:37:59;;;;;;;18.60;10.20;;;;;;;7.39;100.00;99401.98;177863;1263;46001;-88
2024/01/01 17:42:03;;;;;;;19.30;9.30;;;;;;;7.43;100.00;99407.80;177864;1260;46143;-86
2024/01/01 17:46:07;;;;;;;21.10;11.00;;;;;;;7.45;100.00;99408.58;177350;1262;57980;-85
2024/01/01 17:50:11;;;;;;;14.70;8.30;;;;;;;7.46;100.00;99412.50;177521;1262;46121;-89
2024/01/01 17:54:15;;;;;;;10.10;7.10;;;;;;;7.49;100.00;99410.69;177792;1263;44529;-89
2024/01/01 17:58:19;;;;;;;10.60;6.40;;;;;;;7.53;100.00;99411.58;177767;1263;46204;-87
2024/01/01 18:02:23;;;;;;;10.60;5.40;;;;;;;7.58;98.92;99413.87;177682;1262;46053;-89
2024/01/01 18:06:27;;;;;;;9.30;6.60;;;;;;;7.63;98.82;99416.30;177833;1263;59603;-89
2024/01/01 18:10:30;;;;;;;6.80;4.10;;;;;;;7.66;98.93;99421.52;177300;1262;46144;-88
2024/01/01 18:14:35;;;;;;;9.00;6.10;;;;;;;7.67;97.76;99427.38;177327;1262;46149;-89
2024/01/01 18:18:40;;;;;;;9.00;4.30;;;;;;;7.61;95.21;99432.48;177758;1266;46017;-89
2024/01/01 18:22:43;;;;;;;9.60;5.00;;;;;;;7.61;95.27;99440.99;177497;1265;46454;-89
2024/01/01 18:26:48;;;;;;;11.30;5.20;;;;;;;7.57;95.62;99443.04;177632;1265;59602;-87
2024/01/01 18:30:52;;;;;;;11.80;7.30;;;;;;;7.61;96.66;99441.66;178600;1260;45958;-88
2024/01/01 18:34:56;;;;;;;16.20;6.70;;;;;;;7.63;97.77;99443.22;178825;1260;44392;-88
2024/01/01 18:39:01;;;;;;;8.60;4.80;;;;;;;7.57;98.31;99447.77;177915;1265;46123;-89
2024/01/01 18:43:05;;;;;;;7.90;5.30;;;;;;;7.43;98.54;99449.80;177829;1260;46175;-88
2024/01/01 18:47:09;;;;;;;9.30;5.60;;;;;;;7.34;99.59;99449.33;178191;1260;59292;-89
2024/01/01 18:51:12;;;;;;;7.00;4.90;;;;;;;7.36;100.00;99447.57;178799;1263;44989;-87
2024/01/01 18:55:16;;;;;;;7.40;4.60;;;;;;;7.39;100.00;99447.01;177546;1263;46155;-88
2024/01/01 18:59:19;;;;;;;12.50;5.80;;;;;;;7.37;100.00;99449.95;178107;1262;46029;-87